Ajax, Kentucky
Current Conditions -  °F | °C
As of 4:53 AM on Thursday 27 Nov 2014 (Local Time) from KJKL Reporting Station
Overcast Overcast  
Wind Chill: 27°   Ceiling: 4800
Heat Index: 33°   Visibility: 7mi
Dew Point: 27°   Wind: 7mph
Humidity: 78%   Direction: 10°N
Pressure: 30.03"   Gusts: NA
Location:  37.3318°N, 83.1697°W
Report Text: KJKL 270953Z AUTO 01006KT 7SM OVC048 01/M03 A3003 RMK AO2 SNB09E32 SLP175 P0000 T00061028
Loading
Personal Weather Stations






























Interactive Weather Map New forecast layout! Learn more

10-Day Weather Forecast

Advertisements
Track Severe Weather on mobile